sensor_id;sensor_type;location;lat;lon;timestamp;P1;durP1;ratioP1;P2;durP2;ratioP2
70216;SDS011;65567;55.684;37.570;2023-09-12T00:01:16;35.30;;;20.15;;
70216;SDS011;65567;55.684;37.570;2023-09-12T00:03:42;31.92;;;18.27;;
70216;SDS011;65567;55.684;37.570;2023-09-12T00:06:07;37.05;;;21.58;;
70216;SDS011;65567;55.684;37.570;2023-09-12T00:08:33;35.03;;;20.55;;
70216;SDS011;65567;55.684;37.570;2023-09-12T00:11:03;34.78;;;20.25;;
70216;SDS011;65567;55.684;37.570;2023-09-12T00:13:31;37.90;;;20.98;;
70216;SDS011;65567;55.684;37.570;2023-09-12T00:15:58;36.95;;;20.98;;
70216;SDS011;65567;55.684;37.570;2023-09-12T00:18:23;34.60;;;21.85;;
70216;SDS011;65567;55.684;37.570;2023-09-12T00:20:50;35.50;;;21.15;;
70216;SDS011;65567;55.684;37.570;2023-09-12T00:23:17;34.63;;;20.67;;
70216;SDS011;65567;55.684;37.570;2023-09-12T00:25:43;36.45;;;21.92;;
70216;SDS011;65567;55.684;37.570;2023-09-12T00:28:09;32.17;;;20.33;;
70216;SDS011;65567;55.684;37.570;2023-09-12T00:30:34;38.90;;;21.35;;
70216;SDS011;65567;55.684;37.570;2023-09-12T00:33:00;38.72;;;21.05;;
70216;SDS011;65567;55.684;37.570;2023-09-12T00:35:26;40.22;;;22.10;;
70216;SDS011;65567;55.684;37.570;2023-09-12T00:37:52;38.63;;;23.70;;
70216;SDS011;65567;55.684;37.570;2023-09-12T00:40:17;41.60;;;22.23;;
70216;SDS011;65567;55.684;37.570;2023-09-12T00:42:43;42.15;;;22.95;;
70216;SDS011;65567;55.684;37.570;2023-09-12T00:45:09;35.50;;;22.45;;
70216;SDS011;65567;55.684;37.570;2023-09-12T00:47:35;39.85;;;22.80;;
70216;SDS011;65567;55.684;37.570;2023-09-12T00:50:01;37.88;;;22.25;;
70216;SDS011;65567;55.684;37.570;2023-09-12T00:52:30;39.90;;;21.55;;
70216;SDS011;65567;55.684;37.570;2023-09-12T00:54:58;42.20;;;22.45;;
70216;SDS011;65567;55.684;37.570;2023-09-12T00:57:24;39.67;;;22.77;;
70216;SDS011;65567;55.684;37.570;2023-09-12T00:59:51;38.65;;;23.10;;
70216;SDS011;65567;55.684;37.570;2023-09-12T01:02:18;36.95;;;21.63;;
70216;SDS011;65567;55.684;37.570;2023-09-12T01:04:44;39.20;;;23.20;;
70216;SDS011;65567;55.684;37.570;2023-09-12T01:07:11;41.83;;;22.85;;
70216;SDS011;65567;55.684;37.570;2023-09-12T01:09:37;37.80;;;21.83;;
70216;SDS011;65567;55.684;37.570;2023-09-12T01:12:03;37.65;;;22.33;;
70216;SDS011;65567;55.684;37.570;2023-09-12T01:14:30;38.38;;;21.67;;
70216;SDS011;65567;55.684;37.570;2023-09-12T01:16:56;37.35;;;20.13;;
70216;SDS011;65567;55.684;37.570;2023-09-12T01:19:22;38.63;;;20.88;;
70216;SDS011;65567;55.684;37.570;2023-09-12T01:27:17;40.35;;;20.88;;
70216;SDS011;65567;55.684;37.570;2023-09-12T01:30:08;38.58;;;22.30;;
70216;SDS011;65567;55.684;37.570;2023-09-12T01:32:35;39.58;;;22.63;;
70216;SDS011;65567;55.684;37.570;2023-09-12T01:35:01;37.35;;;23.13;;
70216;SDS011;65567;55.684;37.570;2023-09-12T01:37:30;45.47;;;25.45;;
70216;SDS011;65567;55.684;37.570;2023-09-12T01:39:56;48.45;;;26.20;;
70216;SDS011;65567;55.684;37.570;2023-09-12T01:42:23;50.45;;;26.70;;
70216;SDS011;65567;55.684;37.570;2023-09-12T01:44:54;45.25;;;24.65;;
70216;SDS011;65567;55.684;37.570;2023-09-12T01:47:21;50.30;;;26.27;;
70216;SDS011;65567;55.684;37.570;2023-09-12T01:49:49;50.75;;;27.15;;
70216;SDS011;65567;55.684;37.570;2023-09-12T01:52:17;46.92;;;25.42;;
70216;SDS011;65567;55.684;37.570;2023-09-12T01:54:44;47.25;;;26.80;;
70216;SDS011;65567;55.684;37.570;2023-09-12T01:57:10;51.72;;;25.50;;
70216;SDS011;65567;55.684;37.570;2023-09-12T01:59:37;48.80;;;25.15;;
70216;SDS011;65567;55.684;37.570;2023-09-12T02:02:03;50.35;;;27.73;;
70216;SDS011;65567;55.684;37.570;2023-09-12T02:04:28;43.25;;;23.90;;
70216;SDS011;65567;55.684;37.570;2023-09-12T02:06:54;49.03;;;25.67;;
70216;SDS011;65567;55.684;37.570;2023-09-12T02:09:20;44.47;;;24.27;;
70216;SDS011;65567;55.684;37.570;2023-09-12T02:11:46;51.25;;;26.65;;
70216;SDS011;65567;55.684;37.570;2023-09-12T02:14:12;47.58;;;25.90;;
70216;SDS011;65567;55.684;37.570;2023-09-12T02:16:38;43.00;;;24.42;;
70216;SDS011;65567;55.684;37.570;2023-09-12T02:19:04;44.30;;;24.52;;
70216;SDS011;65567;55.684;37.570;2023-09-12T02:21:30;45.08;;;24.17;;
70216;SDS011;65567;55.684;37.570;2023-09-12T02:23:56;44.33;;;25.25;;
70216;SDS011;65567;55.684;37.570;2023-09-12T02:26:22;47.95;;;25.15;;
70216;SDS011;65567;55.684;37.570;2023-09-12T02:28:47;48.15;;;25.27;;
70216;SDS011;65567;55.684;37.570;2023-09-12T02:31:13;45.20;;;23.98;;
70216;SDS011;65567;55.684;37.570;2023-09-12T02:33:39;43.80;;;23.92;;
70216;SDS011;65567;55.684;37.570;2023-09-12T02:36:05;45.67;;;23.85;;
70216;SDS011;65567;55.684;37.570;2023-09-12T02:38:31;39.60;;;21.50;;
70216;SDS011;65567;55.684;37.570;2023-09-12T02:40:57;43.63;;;22.90;;
70216;SDS011;65567;55.684;37.570;2023-09-12T02:43:23;39.42;;;23.75;;
70216;SDS011;65567;55.684;37.570;2023-09-12T02:45:49;42.13;;;23.77;;
70216;SDS011;65567;55.684;37.570;2023-09-12T02:48:15;46.47;;;24.58;;
70216;SDS011;65567;55.684;37.570;2023-09-12T02:50:40;43.15;;;22.95;;
70216;SDS011;65567;55.684;37.570;2023-09-12T02:53:06;47.70;;;24.35;;
70216;SDS011;65567;55.684;37.570;2023-09-12T02:55:32;48.72;;;24.85;;
70216;SDS011;65567;55.684;37.570;2023-09-12T02:57:58;51.42;;;25.63;;
70216;SDS011;65567;55.684;37.570;2023-09-12T03:00:24;44.72;;;24.48;;
70216;SDS011;65567;55.684;37.570;2023-09-12T03:02:49;46.05;;;24.55;;
70216;SDS011;65567;55.684;37.570;2023-09-12T03:05:15;50.60;;;25.85;;
70216;SDS011;65567;55.684;37.570;2023-09-12T03:07:41;50.05;;;25.02;;
70216;SDS011;65567;55.684;37.570;2023-09-12T03:10:07;44.42;;;23.83;;
70216;SDS011;65567;55.684;37.570;2023-09-12T03:12:33;50.92;;;24.95;;
70216;SDS011;65567;55.684;37.570;2023-09-12T03:15:00;46.58;;;25.42;;
70216;SDS011;65567;55.684;37.570;2023-09-12T03:17:27;42.03;;;24.20;;
70216;SDS011;65567;55.684;37.570;2023-09-12T03:19:53;43.42;;;23.27;;
70216;SDS011;65567;55.684;37.570;2023-09-12T03:22:19;42.45;;;24.25;;
70216;SDS011;65567;55.684;37.570;2023-09-12T03:24:45;39.40;;;21.83;;
70216;SDS011;65567;55.684;37.570;2023-09-12T03:27:10;39.80;;;22.52;;
70216;SDS011;65567;55.684;37.570;2023-09-12T03:29:36;37.53;;;22.60;;
70216;SDS011;65567;55.684;37.570;2023-09-12T03:32:02;36.47;;;20.73;;
70216;SDS011;65567;55.684;37.570;2023-09-12T03:34:27;37.58;;;20.48;;
70216;SDS011;65567;55.684;37.570;2023-09-12T03:36:53;32.22;;;21.23;;
70216;SDS011;65567;55.684;37.570;2023-09-12T03:39:19;35.55;;;21.52;;
70216;SDS011;65567;55.684;37.570;2023-09-12T03:41:44;38.30;;;22.52;;
70216;SDS011;65567;55.684;37.570;2023-09-12T03:44:10;36.40;;;20.45;;
70216;SDS011;65567;55.684;37.570;2023-09-12T03:46:36;37.95;;;20.75;;
70216;SDS011;65567;55.684;37.570;2023-09-12T03:49:01;33.22;;;20.20;;
70216;SDS011;65567;55.684;37.570;2023-09-12T03:51:27;35.03;;;20.33;;
70216;SDS011;65567;55.684;37.570;2023-09-12T03:53:52;31.35;;;19.70;;
70216;SDS011;65567;55.684;37.570;2023-09-12T03:56:18;32.78;;;19.65;;
70216;SDS011;65567;55.684;37.570;2023-09-12T03:58:45;31.30;;;20.38;;
70216;SDS011;65567;55.684;37.570;2023-09-12T04:01:11;34.05;;;19.92;;
70216;SDS011;65567;55.684;37.570;2023-09-12T04:03:36;32.00;;;18.15;;
70216;SDS011;65567;55.684;37.570;2023-09-12T04:06:02;31.63;;;18.13;;
70216;SDS011;65567;55.684;37.570;2023-09-12T04:08:27;29.15;;;18.58;;
70216;SDS011;65567;55.684;37.570;2023-09-12T04:10:56;30.77;;;20.00;;
70216;SDS011;65567;55.684;37.570;2023-09-12T04:13:22;30.35;;;18.83;;
70216;SDS011;65567;55.684;37.570;2023-09-12T04:15:48;31.38;;;18.67;;
70216;SDS011;65567;55.684;37.570;2023-09-12T04:18:13;30.73;;;19.08;;
70216;SDS011;65567;55.684;37.570;2023-09-12T04:20:39;29.08;;;19.23;;
70216;SDS011;65567;55.684;37.570;2023-09-12T04:23:06;28.45;;;18.95;;
70216;SDS011;65567;55.684;37.570;2023-09-12T04:25:34;28.90;;;19.25;;
70216;SDS011;65567;55.684;37.570;2023-09-12T04:28:00;27.40;;;19.17;;
70216;SDS011;65567;55.684;37.570;2023-09-12T04:30:25;29.25;;;18.58;;
70216;SDS011;65567;55.684;37.570;2023-09-12T04:32:51;29.33;;;19.42;;
70216;SDS011;65567;55.684;37.570;2023-09-12T04:35:16;25.15;;;17.90;;
70216;SDS011;65567;55.684;37.570;2023-09-12T04:37:44;29.67;;;19.25;;
70216;SDS011;65567;55.684;37.570;2023-09-12T04:40:10;27.85;;;18.33;;
70216;SDS011;65567;55.684;37.570;2023-09-12T04:42:36;26.40;;;18.73;;
70216;SDS011;65567;55.684;37.570;2023-09-12T04:45:02;48.15;;;33.38;;
70216;SDS011;65567;55.684;37.570;2023-09-12T04:47:28;29.40;;;19.65;;
70216;SDS011;65567;55.684;37.570;2023-09-12T04:49:54;27.08;;;19.08;;
70216;SDS011;65567;55.684;37.570;2023-09-12T04:52:19;29.08;;;18.00;;
70216;SDS011;65567;55.684;37.570;2023-09-12T04:54:45;27.75;;;18.20;;
70216;SDS011;65567;55.684;37.570;2023-09-12T04:57:11;26.70;;;18.80;;
70216;SDS011;65567;55.684;37.570;2023-09-12T04:59:37;25.05;;;18.50;;
70216;SDS011;65567;55.684;37.570;2023-09-12T05:02:03;27.17;;;18.77;;
70216;SDS011;65567;55.684;37.570;2023-09-12T05:04:29;28.75;;;18.10;;
70216;SDS011;65567;55.684;37.570;2023-09-12T05:06:54;24.42;;;17.42;;
70216;SDS011;65567;55.684;37.570;2023-09-12T05:09:20;26.63;;;18.27;;
70216;SDS011;65567;55.684;37.570;2023-09-12T05:11:46;27.55;;;18.83;;
70216;SDS011;65567;55.684;37.570;2023-09-12T05:14:11;29.27;;;19.80;;
70216;SDS011;65567;55.684;37.570;2023-09-12T05:16:37;29.42;;;18.88;;
70216;SDS011;65567;55.684;37.570;2023-09-12T05:19:03;25.58;;;18.23;;
70216;SDS011;65567;55.684;37.570;2023-09-12T05:21:29;25.90;;;18.67;;
70216;SDS011;65567;55.684;37.570;2023-09-12T05:23:54;25.15;;;17.60;;
70216;SDS011;65567;55.684;37.570;2023-09-12T05:26:20;26.98;;;19.27;;
70216;SDS011;65567;55.684;37.570;2023-09-12T05:28:46;25.25;;;18.52;;
70216;SDS011;65567;55.684;37.570;2023-09-12T05:31:11;26.08;;;18.35;;
70216;SDS011;65567;55.684;37.570;2023-09-12T05:33:37;28.45;;;19.42;;
70216;SDS011;65567;55.684;37.570;2023-09-12T05:36:03;26.23;;;17.67;;
70216;SDS011;65567;55.684;37.570;2023-09-12T05:38:29;25.85;;;19.35;;
70216;SDS011;65567;55.684;37.570;2023-09-12T05:40:55;27.35;;;19.13;;
70216;SDS011;65567;55.684;37.570;2023-09-12T05:43:21;26.25;;;19.45;;
70216;SDS011;65567;55.684;37.570;2023-09-12T05:45:47;26.10;;;18.88;;
70216;SDS011;65567;55.684;37.570;2023-09-12T05:48:12;25.88;;;19.30;;
70216;SDS011;65567;55.684;37.570;2023-09-12T05:50:38;24.92;;;19.52;;
70216;SDS011;65567;55.684;37.570;2023-09-12T05:53:04;29.25;;;19.73;;
70216;SDS011;65567;55.684;37.570;2023-09-12T05:55:30;29.63;;;20.20;;
70216;SDS011;65567;55.684;37.570;2023-09-12T05:57:56;27.95;;;19.33;;
70216;SDS011;65567;55.684;37.570;2023-09-12T06:00:24;29.30;;;19.20;;
70216;SDS011;65567;55.684;37.570;2023-09-12T06:02:50;28.85;;;18.30;;
70216;SDS011;65567;55.684;37.570;2023-09-12T06:05:16;29.23;;;19.95;;
70216;SDS011;65567;55.684;37.570;2023-09-12T06:07:41;26.75;;;19.58;;
70216;SDS011;65567;55.684;37.570;2023-09-12T06:10:08;28.25;;;19.52;;
70216;SDS011;65567;55.684;37.570;2023-09-12T06:12:34;28.05;;;19.30;;
70216;SDS011;65567;55.684;37.570;2023-09-12T06:15:01;27.02;;;19.00;;
70216;SDS011;65567;55.684;37.570;2023-09-12T06:17:30;29.27;;;18.92;;
70216;SDS011;65567;55.684;37.570;2023-09-12T06:19:56;25.17;;;18.25;;
70216;SDS011;65567;55.684;37.570;2023-09-12T06:22:22;26.67;;;18.55;;
70216;SDS011;65567;55.684;37.570;2023-09-12T06:24:51;26.55;;;19.85;;
70216;SDS011;65567;55.684;37.570;2023-09-12T06:27:18;25.02;;;18.77;;
70216;SDS011;65567;55.684;37.570;2023-09-12T06:29:46;24.90;;;17.73;;
70216;SDS011;65567;55.684;37.570;2023-09-12T06:32:16;26.98;;;19.20;;
70216;SDS011;65567;55.684;37.570;2023-09-12T06:34:43;25.23;;;17.10;;
70216;SDS011;65567;55.684;37.570;2023-09-12T06:37:10;28.15;;;19.58;;
70216;SDS011;65567;55.684;37.570;2023-09-12T06:39:36;26.48;;;17.30;;
70216;SDS011;65567;55.684;37.570;2023-09-12T06:42:02;26.92;;;18.38;;
70216;SDS011;65567;55.684;37.570;2023-09-12T06:44:28;26.70;;;18.63;;
70216;SDS011;65567;55.684;37.570;2023-09-12T06:46:56;25.38;;;17.15;;
70216;SDS011;65567;55.684;37.570;2023-09-12T06:49:22;27.85;;;18.73;;
70216;SDS011;65567;55.684;37.570;2023-09-12T06:51:47;22.13;;;16.35;;
70216;SDS011;65567;55.684;37.570;2023-09-12T06:54:13;24.73;;;17.88;;
70216;SDS011;65567;55.684;37.570;2023-09-12T06:56:40;21.92;;;16.55;;
70216;SDS011;65567;55.684;37.570;2023-09-12T06:59:07;21.65;;;17.05;;
70216;SDS011;65567;55.684;37.570;2023-09-12T07:01:33;38.60;;;19.08;;
70216;SDS011;65567;55.684;37.570;2023-09-12T07:03:59;27.23;;;16.42;;
70216;SDS011;65567;55.684;37.570;2023-09-12T07:06:24;23.52;;;17.27;;
70216;SDS011;65567;55.684;37.570;2023-09-12T07:08:50;22.75;;;17.92;;
70216;SDS011;65567;55.684;37.570;2023-09-12T07:11:16;23.20;;;17.00;;
70216;SDS011;65567;55.684;37.570;2023-09-12T07:13:42;23.42;;;18.02;;
70216;SDS011;65567;55.684;37.570;2023-09-12T07:16:08;24.10;;;16.65;;
70216;SDS011;65567;55.684;37.570;2023-09-12T07:18:33;23.25;;;15.52;;
70216;SDS011;65567;55.684;37.570;2023-09-12T07:21:00;24.27;;;16.90;;
70216;SDS011;65567;55.684;37.570;2023-09-12T07:23:27;27.20;;;17.23;;
70216;SDS011;65567;55.684;37.570;2023-09-12T07:25:53;30.77;;;17.10;;
70216;SDS011;65567;55.684;37.570;2023-09-12T07:28:22;21.33;;;15.82;;
70216;SDS011;65567;55.684;37.570;2023-09-12T07:30:48;19.58;;;16.38;;
70216;SDS011;65567;55.684;37.570;2023-09-12T07:33:14;20.77;;;16.30;;
70216;SDS011;65567;55.684;37.570;2023-09-12T07:35:40;22.67;;;16.83;;
70216;SDS011;65567;55.684;37.570;2023-09-12T07:38:06;22.63;;;17.35;;
70216;SDS011;65567;55.684;37.570;2023-09-12T07:40:31;18.35;;;15.45;;
70216;SDS011;65567;55.684;37.570;2023-09-12T07:42:57;24.38;;;16.77;;
70216;SDS011;65567;55.684;37.570;2023-09-12T07:45:23;17.23;;;14.02;;
70216;SDS011;65567;55.684;37.570;2023-09-12T07:47:48;20.77;;;15.43;;
70216;SDS011;65567;55.684;37.570;2023-09-12T07:50:14;20.10;;;15.88;;
70216;SDS011;65567;55.684;37.570;2023-09-12T07:52:40;25.90;;;16.80;;
70216;SDS011;65567;55.684;37.570;2023-09-12T07:55:06;27.85;;;17.48;;
70216;SDS011;65567;55.684;37.570;2023-09-12T07:57:32;22.33;;;16.27;;
70216;SDS011;65567;55.684;37.570;2023-09-12T07:59:59;23.17;;;16.10;;
70216;SDS011;65567;55.684;37.570;2023-09-12T08:02:25;22.95;;;15.25;;
70216;SDS011;65567;55.684;37.570;2023-09-12T08:04:50;19.55;;;16.48;;
70216;SDS011;65567;55.684;37.570;2023-09-12T08:07:16;18.02;;;15.48;;
70216;SDS011;65567;55.684;37.570;2023-09-12T08:09:49;21.00;;;14.68;;
70216;SDS011;65567;55.684;37.570;2023-09-12T08:12:18;21.55;;;15.50;;
70216;SDS011;65567;55.684;37.570;2023-09-12T08:14:45;17.80;;;14.93;;
70216;SDS011;65567;55.684;37.570;2023-09-12T08:17:13;19.05;;;14.98;;
70216;SDS011;65567;55.684;37.570;2023-09-12T08:19:40;17.13;;;13.52;;
70216;SDS011;65567;55.684;37.570;2023-09-12T08:22:09;16.63;;;12.65;;
70216;SDS011;65567;55.684;37.570;2023-09-12T08:24:36;17.95;;;12.48;;
70216;SDS011;65567;55.684;37.570;2023-09-12T08:27:02;22.38;;;14.20;;
70216;SDS011;65567;55.684;37.570;2023-09-12T08:29:28;18.92;;;13.68;;
70216;SDS011;65567;55.684;37.570;2023-09-12T08:31:55;16.75;;;12.93;;
70216;SDS011;65567;55.684;37.570;2023-09-12T08:34:24;19.55;;;14.05;;
70216;SDS011;65567;55.684;37.570;2023-09-12T08:36:52;18.90;;;12.70;;
70216;SDS011;65567;55.684;37.570;2023-09-12T08:39:23;18.23;;;12.80;;
70216;SDS011;65567;55.684;37.570;2023-09-12T08:41:50;16.95;;;12.65;;
70216;SDS011;65567;55.684;37.570;2023-09-12T08:44:17;16.42;;;12.88;;
70216;SDS011;65567;55.684;37.570;2023-09-12T08:46:43;18.85;;;14.05;;
70216;SDS011;65567;55.684;37.570;2023-09-12T08:49:10;15.55;;;12.93;;
70216;SDS011;65567;55.684;37.570;2023-09-12T08:51:39;17.08;;;13.30;;
70216;SDS011;65567;55.684;37.570;2023-09-12T08:54:06;16.73;;;13.13;;
70216;SDS011;65567;55.684;37.570;2023-09-12T08:56:32;20.25;;;13.27;;
70216;SDS011;65567;55.684;37.570;2023-09-12T08:59:02;16.67;;;12.43;;
70216;SDS011;65567;55.684;37.570;2023-09-12T09:01:32;18.20;;;11.55;;
70216;SDS011;65567;55.684;37.570;2023-09-12T09:03:59;15.83;;;11.37;;
70216;SDS011;65567;55.684;37.570;2023-09-12T09:06:28;14.45;;;12.07;;
70216;SDS011;65567;55.684;37.570;2023-09-12T09:08:57;18.00;;;11.82;;
70216;SDS011;65567;55.684;37.570;2023-09-12T09:11:24;16.08;;;12.02;;
70216;SDS011;65567;55.684;37.570;2023-09-12T09:13:53;14.52;;;10.73;;
70216;SDS011;65567;55.684;37.570;2023-09-12T09:16:19;15.30;;;10.52;;
70216;SDS011;65567;55.684;37.570;2023-09-12T09:21:24;13.13;;;10.05;;
70216;SDS011;65567;55.684;37.570;2023-09-12T09:23:51;16.00;;;11.00;;
70216;SDS011;65567;55.684;37.570;2023-09-12T09:26:18;17.92;;;11.70;;
70216;SDS011;65567;55.684;37.570;2023-09-12T09:28:44;16.13;;;11.95;;
70216;SDS011;65567;55.684;37.570;2023-09-12T09:31:13;14.70;;;11.63;;
70216;SDS011;65567;55.684;37.570;2023-09-12T09:33:42;18.65;;;12.80;;
70216;SDS011;65567;55.684;37.570;2023-09-12T09:36:16;14.85;;;11.63;;
70216;SDS011;65567;55.684;37.570;2023-09-12T09:38:42;15.20;;;11.98;;
70216;SDS011;65567;55.684;37.570;2023-09-12T09:41:08;20.02;;;12.20;;
70216;SDS011;65567;55.684;37.570;2023-09-12T09:43:35;17.50;;;11.40;;
70216;SDS011;65567;55.684;37.570;2023-09-12T09:46:03;14.85;;;10.13;;
70216;SDS011;65567;55.684;37.570;2023-09-12T09:48:29;14.18;;;10.85;;
70216;SDS011;65567;55.684;37.570;2023-09-12T09:51:01;13.23;;;10.13;;
70216;SDS011;65567;55.684;37.570;2023-09-12T09:53:28;33.35;;;12.82;;
70216;SDS011;65567;55.684;37.570;2023-09-12T09:58:55;10.38;;;9.00;;
70216;SDS011;65567;55.684;37.570;2023-09-12T10:01:23;11.18;;;8.52;;
70216;SDS011;65567;55.684;37.570;2023-09-12T10:03:59;12.00;;;8.93;;
70216;SDS011;65567;55.684;37.570;2023-09-12T10:06:26;14.38;;;9.07;;
70216;SDS011;65567;55.684;37.570;2023-09-12T10:08:53;14.35;;;8.48;;
70216;SDS011;65567;55.684;37.570;2023-09-12T10:11:23;11.65;;;8.68;;
70216;SDS011;65567;55.684;37.570;2023-09-12T10:13:53;15.63;;;8.95;;
70216;SDS011;65567;55.684;37.570;2023-09-12T10:16:24;14.38;;;9.82;;
70216;SDS011;65567;55.684;37.570;2023-09-12T10:21:35;16.63;;;9.70;;
70216;SDS011;65567;55.684;37.570;2023-09-12T10:24:02;13.02;;;8.73;;
70216;SDS011;65567;55.684;37.570;2023-09-12T10:26:30;14.27;;;9.32;;
70216;SDS011;65567;55.684;37.570;2023-09-12T10:28:59;19.45;;;10.20;;
70216;SDS011;65567;55.684;37.570;2023-09-12T10:31:30;10.77;;;8.63;;
70216;SDS011;65567;55.684;37.570;2023-09-12T10:33:57;13.80;;;10.13;;
70216;SDS011;65567;55.684;37.570;2023-09-12T10:36:25;13.85;;;9.10;;
70216;SDS011;65567;55.684;37.570;2023-09-12T10:38:52;13.43;;;9.32;;
70216;SDS011;65567;55.684;37.570;2023-09-12T10:41:18;12.50;;;9.88;;
70216;SDS011;65567;55.684;37.570;2023-09-12T10:43:46;13.52;;;9.00;;
70216;SDS011;65567;55.684;37.570;2023-09-12T10:46:15;11.90;;;8.95;;
70216;SDS011;65567;55.684;37.570;2023-09-12T10:48:42;12.73;;;8.05;;
70216;SDS011;65567;55.684;37.570;2023-09-12T10:51:08;11.88;;;8.85;;
70216;SDS011;65567;55.684;37.570;2023-09-12T10:53:35;11.98;;;8.82;;
70216;SDS011;65567;55.684;37.570;2023-09-12T11:01:29;12.05;;;9.20;;
70216;SDS011;65567;55.684;37.570;2023-09-12T11:03:55;13.45;;;9.35;;
70216;SDS011;65567;55.684;37.570;2023-09-12T11:06:22;13.25;;;7.63;;
70216;SDS011;65567;55.684;37.570;2023-09-12T11:14:22;15.10;;;6.95;;
70216;SDS011;65567;55.684;37.570;2023-09-12T11:19:48;8.60;;;5.68;;
70216;SDS011;65567;55.684;37.570;2023-09-12T11:22:26;7.63;;;6.03;;
70216;SDS011;65567;55.684;37.570;2023-09-12T11:24:56;10.25;;;6.55;;
70216;SDS011;65567;55.684;37.570;2023-09-12T11:27:31;9.18;;;6.18;;
70216;SDS011;65567;55.684;37.570;2023-09-12T11:30:15;9.75;;;6.60;;
70216;SDS011;65567;55.684;37.570;2023-09-12T11:32:43;9.27;;;6.03;;
70216;SDS011;65567;55.684;37.570;2023-09-12T11:35:11;9.02;;;5.55;;
70216;SDS011;65567;55.684;37.570;2023-09-12T11:37:38;8.65;;;5.50;;
70216;SDS011;65567;55.684;37.570;2023-09-12T11:42:39;7.97;;;5.00;;
70216;SDS011;65567;55.684;37.570;2023-09-12T11:45:11;9.93;;;5.53;;
70216;SDS011;65567;55.684;37.570;2023-09-12T11:47:40;8.98;;;5.43;;
70216;SDS011;65567;55.684;37.570;2023-09-12T11:50:06;10.27;;;5.63;;
70216;SDS011;65567;55.684;37.570;2023-09-12T11:52:35;10.50;;;6.03;;
70216;SDS011;65567;55.684;37.570;2023-09-12T11:55:02;10.32;;;6.10;;
70216;SDS011;65567;55.684;37.570;2023-09-12T11:57:28;8.95;;;5.45;;
70216;SDS011;65567;55.684;37.570;2023-09-12T11:59:55;9.98;;;6.03;;
70216;SDS011;65567;55.684;37.570;2023-09-12T12:02:21;9.10;;;5.80;;
70216;SDS011;65567;55.684;37.570;2023-09-12T12:04:47;12.63;;;6.15;;
70216;SDS011;65567;55.684;37.570;2023-09-12T12:07:13;8.43;;;5.80;;
70216;SDS011;65567;55.684;37.570;2023-09-12T12:09:39;8.50;;;5.53;;
70216;SDS011;65567;55.684;37.570;2023-09-12T12:14:38;8.40;;;5.13;;
70216;SDS011;65567;55.684;37.570;2023-09-12T12:17:11;8.00;;;5.45;;
70216;SDS011;65567;55.684;37.570;2023-09-12T12:19:38;8.80;;;5.70;;
70216;SDS011;65567;55.684;37.570;2023-09-12T12:22:04;7.55;;;5.28;;
70216;SDS011;65567;55.684;37.570;2023-09-12T12:27:07;7.47;;;5.05;;
70216;SDS011;65567;55.684;37.570;2023-09-12T12:29:35;12.60;;;5.32;;
70216;SDS011;65567;55.684;37.570;2023-09-12T12:32:05;8.80;;;5.20;;
70216;SDS011;65567;55.684;37.570;2023-09-12T12:34:31;6.18;;;4.57;;
70216;SDS011;65567;55.684;37.570;2023-09-12T12:36:57;6.40;;;4.80;;
70216;SDS011;65567;55.684;37.570;2023-09-12T12:39:23;8.20;;;4.85;;
70216;SDS011;65567;55.684;37.570;2023-09-12T12:41:51;11.13;;;5.53;;
70216;SDS011;65567;55.684;37.570;2023-09-12T12:44:18;8.98;;;4.95;;
70216;SDS011;65567;55.684;37.570;2023-09-12T12:46:48;7.95;;;5.03;;
70216;SDS011;65567;55.684;37.570;2023-09-12T12:49:15;7.47;;;5.00;;
70216;SDS011;65567;55.684;37.570;2023-09-12T12:51:42;15.18;;;5.40;;
70216;SDS011;65567;55.684;37.570;2023-09-12T12:54:10;15.18;;;5.70;;
70216;SDS011;65567;55.684;37.570;2023-09-12T12:56:36;7.13;;;5.03;;
70216;SDS011;65567;55.684;37.570;2023-09-12T12:59:03;7.60;;;4.47;;
70216;SDS011;65567;55.684;37.570;2023-09-12T13:01:37;9.00;;;5.30;;
70216;SDS011;65567;55.684;37.570;2023-09-12T13:04:09;7.65;;;5.63;;
70216;SDS011;65567;55.684;37.570;2023-09-12T13:06:35;9.77;;;5.30;;
70216;SDS011;65567;55.684;37.570;2023-09-12T13:09:03;9.07;;;4.85;;
70216;SDS011;65567;55.684;37.570;2023-09-12T13:11:31;9.10;;;4.88;;
70216;SDS011;65567;55.684;37.570;2023-09-12T13:14:00;7.57;;;5.15;;
70216;SDS011;65567;55.684;37.570;2023-09-12T13:16:27;10.07;;;5.28;;
70216;SDS011;65567;55.684;37.570;2023-09-12T13:18:54;11.60;;;5.20;;
70216;SDS011;65567;55.684;37.570;2023-09-12T13:21:19;7.93;;;4.75;;
70216;SDS011;65567;55.684;37.570;2023-09-12T13:23:47;11.88;;;5.10;;
70216;SDS011;65567;55.684;37.570;2023-09-12T13:26:13;16.13;;;5.40;;
70216;SDS011;65567;55.684;37.570;2023-09-12T13:28:39;9.70;;;5.35;;
70216;SDS011;65567;55.684;37.570;2023-09-12T13:31:04;9.90;;;5.55;;
70216;SDS011;65567;55.684;37.570;2023-09-12T13:33:30;12.43;;;9.35;;
70216;SDS011;65567;55.684;37.570;2023-09-12T13:35:56;9.25;;;5.78;;
70216;SDS011;65567;55.684;37.570;2023-09-12T13:38:22;8.65;;;5.22;;
70216;SDS011;65567;55.684;37.570;2023-09-12T13:40:48;10.52;;;4.95;;
70216;SDS011;65567;55.684;37.570;2023-09-12T13:43:14;10.82;;;4.72;;
70216;SDS011;65567;55.684;37.570;2023-09-12T13:45:40;8.60;;;5.28;;
70216;SDS011;65567;55.684;37.570;2023-09-12T13:48:06;6.97;;;5.07;;
70216;SDS011;65567;55.684;37.570;2023-09-12T13:50:32;8.10;;;5.25;;
70216;SDS011;65567;55.684;37.570;2023-09-12T13:52:58;9.43;;;5.07;;
70216;SDS011;65567;55.684;37.570;2023-09-12T13:55:34;8.48;;;4.88;;
70216;SDS011;65567;55.684;37.570;2023-09-12T13:58:02;7.15;;;4.57;;
70216;SDS011;65567;55.684;37.570;2023-09-12T14:00:29;8.00;;;4.70;;
70216;SDS011;65567;55.684;37.570;2023-09-12T14:02:58;7.30;;;4.88;;
70216;SDS011;65567;55.684;37.570;2023-09-12T14:05:24;9.45;;;4.57;;
70216;SDS011;65567;55.684;37.570;2023-09-12T14:07:50;7.68;;;4.60;;
70216;SDS011;65567;55.684;37.570;2023-09-12T14:10:16;7.35;;;4.38;;
70216;SDS011;65567;55.684;37.570;2023-09-12T14:12:45;6.32;;;4.50;;
70216;SDS011;65567;55.684;37.570;2023-09-12T14:15:11;7.85;;;5.20;;
70216;SDS011;65567;55.684;37.570;2023-09-12T14:17:39;7.47;;;4.85;;
70216;SDS011;65567;55.684;37.570;2023-09-12T14:20:05;8.70;;;4.65;;
70216;SDS011;65567;55.684;37.570;2023-09-12T14:22:32;9.68;;;4.78;;
70216;SDS011;65567;55.684;37.570;2023-09-12T14:24:58;10.40;;;5.05;;
70216;SDS011;65567;55.684;37.570;2023-09-12T14:27:24;9.63;;;4.75;;
70216;SDS011;65567;55.684;37.570;2023-09-12T14:29:49;9.73;;;4.95;;
70216;SDS011;65567;55.684;37.570;2023-09-12T14:32:16;8.52;;;5.20;;
70216;SDS011;65567;55.684;37.570;2023-09-12T14:34:41;11.73;;;5.03;;
70216;SDS011;65567;55.684;37.570;2023-09-12T14:37:07;7.28;;;5.25;;
70216;SDS011;65567;55.684;37.570;2023-09-12T14:39:33;7.72;;;4.60;;
70216;SDS011;65567;55.684;37.570;2023-09-12T14:41:59;8.68;;;5.70;;
70216;SDS011;65567;55.684;37.570;2023-09-12T14:44:26;9.63;;;5.47;;
70216;SDS011;65567;55.684;37.570;2023-09-12T14:46:53;9.40;;;5.65;;
70216;SDS011;65567;55.684;37.570;2023-09-12T14:49:19;9.82;;;5.90;;